RJZ1541 OJAQ-OJAQ
Flight info
| Callsign | RJZ1541 |
|---|---|
| Flight time | 1h 4m |
| Altitude | 7500 |
| Route | VFR V5 |
| Aircraft | C207/L-SBDFGLOTUV/C |
Departure
| Time | 2026-05-06 20:52 |
|---|---|
| Airport | King Hussein International Airport (OJAQ) |
Arrival
| Time | 2026-05-06 21:56 |
|---|---|
| Airport | King Hussein International Airport (OJAQ) |
| Time | Latitude | Longitude | Altitude | Speed | Heading |
|---|---|---|---|---|---|
| 2026-05-06 20:38 | 29.60971 | 35.02006 | 176 ft | 0 kts | 105° |
| 2026-05-06 20:40 | 29.60971 | 35.02007 | 176 ft | 0 kts | 98° |
| 2026-05-06 20:40 | 29.60976 | 35.02000 | 176 ft | 3 kts | 249° |
| 2026-05-06 20:40 | 29.60966 | 35.01967 | 176 ft | 5 kts | 251° |
| 2026-05-06 20:40 | 29.60978 | 35.01945 | 176 ft | 8 kts | 13° |
| 2026-05-06 20:41 | 29.61001 | 35.01949 | 177 ft | 11 kts | 2° |
| 2026-05-06 20:41 | 29.61097 | 35.01983 | 176 ft | 0 kts | 346° |
| 2026-05-06 20:41 | 29.61303 | 35.02049 | 176 ft | 15 kts | 16° |
| 2026-05-06 20:41 | 29.61415 | 35.02084 | 177 ft | 26 kts | 18° |
| 2026-05-06 20:42 | 29.61550 | 35.02125 | 176 ft | 33 kts | 13° |
| 2026-05-06 20:42 | 29.61683 | 35.02179 | 177 ft | 28 kts | 20° |
| 2026-05-06 20:42 | 29.61720 | 35.02194 | 176 ft | 24 kts | 17° |
| 2026-05-06 20:42 | 29.61789 | 35.02216 | 176 ft | 9 kts | 353° |
| 2026-05-06 20:43 | 29.61795 | 35.02215 | 177 ft | 8 kts | 6° |
| 2026-05-06 20:43 | 29.61802 | 35.02217 | 176 ft | 5 kts | 15° |
| 2026-05-06 20:44 | 29.61815 | 35.02222 | 176 ft | 7 kts | 19° |
| 2026-05-06 20:44 | 29.61911 | 35.02259 | 176 ft | 14 kts | 15° |
| 2026-05-06 20:45 | 29.61963 | 35.02276 | 176 ft | 12 kts | 19° |
| 2026-05-06 20:45 | 29.62018 | 35.02303 | 176 ft | 11 kts | 18° |
| 2026-05-06 20:45 | 29.62053 | 35.02314 | 176 ft | 9 kts | 23° |
| 2026-05-06 20:45 | 29.62056 | 35.02316 | 176 ft | 9 kts | 28° |
| 2026-05-06 20:46 | 29.62114 | 35.02333 | 176 ft | 7 kts | 8° |
| 2026-05-06 20:46 | 29.62130 | 35.02336 | 176 ft | 7 kts | 6° |
| 2026-05-06 20:46 | 29.62172 | 35.02319 | 176 ft | 5 kts | 309° |
| 2026-05-06 20:47 | 29.62186 | 35.02281 | 177 ft | 4 kts | 264° |
| 2026-05-06 20:47 | 29.62179 | 35.02263 | 177 ft | 0 kts | 241° |
| 2026-05-06 20:51 | 29.62168 | 35.02238 | 176 ft | 2 kts | 240° |
| 2026-05-06 20:52 | 29.62099 | 35.02135 | 177 ft | 1 kts | 198° |
| 2026-05-06 20:52 | 29.61828 | 35.02035 | 235 ft | 69 kts | 200° |
| 2026-05-06 20:52 | 29.61410 | 35.01908 | 631 ft | 67 kts | 197° |
| 2026-05-06 20:52 | 29.61037 | 35.01794 | 904 ft | 71 kts | 198° |
| 2026-05-06 20:53 | 29.60540 | 35.01637 | 1217 ft | 80 kts | 199° |
| 2026-05-06 20:53 | 29.60004 | 35.01441 | 1543 ft | 81 kts | 200° |
| 2026-05-06 20:53 | 29.59498 | 35.01253 | 1860 ft | 79 kts | 200° |
| 2026-05-06 20:53 | 29.58976 | 35.01060 | 2183 ft | 80 kts | 200° |
| 2026-05-06 20:54 | 29.58496 | 35.00881 | 2480 ft | 80 kts | 200° |
| 2026-05-06 20:54 | 29.57972 | 35.00686 | 2804 ft | 79 kts | 200° |
| 2026-05-06 20:54 | 29.57450 | 35.00493 | 3062 ft | 84 kts | 200° |
| 2026-05-06 20:54 | 29.56861 | 35.00500 | 3292 ft | 95 kts | 161° |
| 2026-05-06 20:55 | 29.56427 | 35.01136 | 3474 ft | 115 kts | 116° |
| 2026-05-06 20:55 | 29.56482 | 35.02112 | 3509 ft | 139 kts | 72° |
| 2026-05-06 20:55 | 29.57113 | 35.02918 | 3511 ft | 149 kts | 28° |
| 2026-05-06 20:55 | 29.58070 | 35.03379 | 3509 ft | 151 kts | 17° |
| 2026-05-06 20:56 | 29.59077 | 35.03780 | 3506 ft | 152 kts | 16° |
| 2026-05-06 20:56 | 29.60073 | 35.04171 | 3506 ft | 152 kts | 16° |
| 2026-05-06 20:56 | 29.61052 | 35.04555 | 3506 ft | 152 kts | 16° |
| 2026-05-06 20:56 | 29.62077 | 35.04861 | 3508 ft | 151 kts | 5° |
| 2026-05-06 20:57 | 29.63043 | 35.05050 | 3506 ft | 151 kts | 5° |
| 2026-05-06 20:57 | 29.64101 | 35.05074 | 3506 ft | 148 kts | 354° |
| 2026-05-06 20:57 | 29.65123 | 35.05048 | 3506 ft | 147 kts | 353° |
| 2026-05-06 20:57 | 29.66138 | 35.05020 | 3506 ft | 146 kts | 353° |
| 2026-05-06 20:58 | 29.67157 | 35.04991 | 3506 ft | 146 kts | 353° |
| 2026-05-06 20:58 | 29.68129 | 35.04962 | 3506 ft | 146 kts | 352° |
| 2026-05-06 20:58 | 29.68331 | 35.04939 | 3504 ft | 144 kts | 344° |
| 2026-05-06 20:58 | 29.69059 | 35.04713 | 3497 ft | 146 kts | 348° |
| 2026-05-06 20:59 | 29.70057 | 35.04932 | 3505 ft | 149 kts | 14° |
| 2026-05-06 20:59 | 29.71039 | 35.05292 | 3506 ft | 149 kts | 15° |
| 2026-05-06 20:59 | 29.71994 | 35.05665 | 3506 ft | 149 kts | 16° |
| 2026-05-06 20:59 | 29.72938 | 35.06047 | 3506 ft | 149 kts | 17° |
| 2026-05-06 21:00 | 29.73481 | 35.06275 | 3506 ft | 150 kts | 17° |
| 2026-05-06 21:00 | 29.74345 | 35.06637 | 3538 ft | 147 kts | 17° |
| 2026-05-06 21:00 | 29.75264 | 35.07026 | 3786 ft | 137 kts | 17° |
| 2026-05-06 21:00 | 29.76050 | 35.07347 | 4006 ft | 134 kts | 16° |
| 2026-05-06 21:01 | 29.77002 | 35.07728 | 4230 ft | 135 kts | 15° |
| 2026-05-06 21:01 | 29.77874 | 35.08066 | 4428 ft | 135 kts | 15° |
| 2026-05-06 21:01 | 29.78728 | 35.08397 | 4622 ft | 135 kts | 15° |
| 2026-05-06 21:01 | 29.79581 | 35.08728 | 4816 ft | 135 kts | 15° |
| 2026-05-06 21:02 | 29.80471 | 35.09073 | 5018 ft | 137 kts | 15° |
| 2026-05-06 21:02 | 29.81266 | 35.09391 | 5197 ft | 137 kts | 16° |
| 2026-05-06 21:02 | 29.82174 | 35.09760 | 5401 ft | 138 kts | 16° |
| 2026-05-06 21:02 | 29.83078 | 35.10129 | 5604 ft | 138 kts | 17° |
| 2026-05-06 21:03 | 29.83954 | 35.10486 | 5800 ft | 138 kts | 17° |
| 2026-05-06 21:03 | 29.84850 | 35.10852 | 6001 ft | 138 kts | 17° |
| 2026-05-06 21:03 | 29.85749 | 35.11219 | 6202 ft | 138 kts | 17° |
| 2026-05-06 21:03 | 29.86634 | 35.11601 | 6402 ft | 138 kts | 18° |
| 2026-05-06 21:04 | 29.87517 | 35.11997 | 6602 ft | 138 kts | 18° |
| 2026-05-06 21:04 | 29.88401 | 35.12394 | 6802 ft | 138 kts | 18° |
| 2026-05-06 21:04 | 29.89301 | 35.12797 | 6975 ft | 141 kts | 18° |
| 2026-05-06 21:04 | 29.90088 | 35.13150 | 7005 ft | 149 kts | 18° |
| 2026-05-06 21:05 | 29.90809 | 35.13471 | 7008 ft | 151 kts | 19° |
| 2026-05-06 21:05 | 29.91279 | 35.13681 | 7008 ft | 151 kts | 19° |
| 2026-05-06 21:05 | 29.92075 | 35.14035 | 7007 ft | 150 kts | 19° |
| 2026-05-06 21:05 | 29.93026 | 35.14460 | 7008 ft | 150 kts | 19° |
| 2026-05-06 21:06 | 29.93925 | 35.14861 | 7008 ft | 151 kts | 19° |
| 2026-05-06 21:06 | 29.94879 | 35.15287 | 7008 ft | 151 kts | 19° |
| 2026-05-06 21:06 | 29.95775 | 35.15892 | 6998 ft | 152 kts | 49° |
| 2026-05-06 21:06 | 29.96195 | 35.16922 | 7004 ft | 147 kts | 82° |
| 2026-05-06 21:07 | 29.96434 | 35.18046 | 7008 ft | 147 kts | 80° |
| 2026-05-06 21:07 | 29.96660 | 35.19059 | 7008 ft | 147 kts | 81° |
| 2026-05-06 21:07 | 29.96848 | 35.20198 | 7007 ft | 146 kts | 86° |
| 2026-05-06 21:07 | 29.96978 | 35.21360 | 7007 ft | 145 kts | 89° |
| 2026-05-06 21:08 | 29.97096 | 35.22520 | 7007 ft | 145 kts | 89° |
| 2026-05-06 21:08 | 29.97211 | 35.23655 | 7008 ft | 144 kts | 89° |
| 2026-05-06 21:08 | 29.97329 | 35.24817 | 7008 ft | 144 kts | 89° |
| 2026-05-06 21:08 | 29.97446 | 35.25964 | 7014 ft | 144 kts | 89° |
| 2026-05-06 21:09 | 29.97553 | 35.27085 | 7011 ft | 143 kts | 94° |
| 2026-05-06 21:09 | 29.97591 | 35.28231 | 7009 ft | 143 kts | 95° |
| 2026-05-06 21:09 | 29.97622 | 35.29374 | 7009 ft | 144 kts | 95° |
| 2026-05-06 21:09 | 29.97653 | 35.30513 | 7009 ft | 144 kts | 95° |
| 2026-05-06 21:10 | 29.97671 | 35.31668 | 7008 ft | 144 kts | 96° |
| 2026-05-06 21:10 | 29.97684 | 35.32795 | 7008 ft | 144 kts | 96° |
| 2026-05-06 21:10 | 29.97696 | 35.33945 | 7008 ft | 144 kts | 96° |
| 2026-05-06 21:10 | 29.97709 | 35.35112 | 7008 ft | 144 kts | 96° |
| 2026-05-06 21:11 | 29.97722 | 35.36264 | 7008 ft | 144 kts | 96° |
| 2026-05-06 21:11 | 29.97734 | 35.37418 | 7008 ft | 144 kts | 96° |
| 2026-05-06 21:11 | 29.97745 | 35.38572 | 7008 ft | 144 kts | 96° |
| 2026-05-06 21:11 | 29.97757 | 35.39734 | 7009 ft | 144 kts | 96° |
| 2026-05-06 21:12 | 29.97769 | 35.40900 | 7009 ft | 144 kts | 96° |
| 2026-05-06 21:12 | 29.97780 | 35.42051 | 7009 ft | 144 kts | 96° |
| 2026-05-06 21:12 | 29.97791 | 35.43214 | 7009 ft | 144 kts | 96° |
| 2026-05-06 21:12 | 29.97802 | 35.44359 | 7009 ft | 144 kts | 96° |
| 2026-05-06 21:13 | 29.97813 | 35.45517 | 7009 ft | 144 kts | 96° |
| 2026-05-06 21:13 | 29.97824 | 35.46680 | 7009 ft | 144 kts | 96° |
| 2026-05-06 21:13 | 29.97834 | 35.47837 | 7009 ft | 144 kts | 96° |
| 2026-05-06 21:13 | 29.97844 | 35.48984 | 7009 ft | 144 kts | 96° |
| 2026-05-06 21:14 | 29.97854 | 35.50148 | 7009 ft | 144 kts | 96° |
| 2026-05-06 21:14 | 29.97856 | 35.50352 | 7009 ft | 144 kts | 96° |
| 2026-05-06 21:14 | 29.97346 | 35.49551 | 7008 ft | 128 kts | 234° |
| 2026-05-06 21:15 | 29.97027 | 35.48611 | 7007 ft | 123 kts | 246° |
| 2026-05-06 21:15 | 29.96767 | 35.47711 | 7007 ft | 120 kts | 246° |
| 2026-05-06 21:15 | 29.96529 | 35.46909 | 7007 ft | 118 kts | 243° |
| 2026-05-06 21:15 | 29.96144 | 35.46113 | 7008 ft | 116 kts | 232° |
| 2026-05-06 21:16 | 29.95593 | 35.45450 | 7008 ft | 115 kts | 219° |
| 2026-05-06 21:16 | 29.94995 | 35.44952 | 7009 ft | 114 kts | 212° |
| 2026-05-06 21:16 | 29.94348 | 35.44461 | 7008 ft | 114 kts | 212° |
| 2026-05-06 21:16 | 29.93691 | 35.43964 | 7008 ft | 114 kts | 212° |
| 2026-05-06 21:17 | 29.93021 | 35.43458 | 7008 ft | 114 kts | 212° |
| 2026-05-06 21:17 | 29.92351 | 35.42951 | 7008 ft | 114 kts | 212° |
| 2026-05-06 21:17 | 29.91692 | 35.42452 | 7008 ft | 114 kts | 212° |
| 2026-05-06 21:17 | 29.91019 | 35.41943 | 7008 ft | 114 kts | 212° |
| 2026-05-06 21:18 | 29.90358 | 35.41442 | 7008 ft | 114 kts | 212° |
| 2026-05-06 21:18 | 29.89698 | 35.40942 | 7008 ft | 114 kts | 212° |
| 2026-05-06 21:18 | 29.89031 | 35.40437 | 7008 ft | 114 kts | 212° |
| 2026-05-06 21:18 | 29.88369 | 35.39935 | 7008 ft | 114 kts | 212° |
| 2026-05-06 21:19 | 29.87702 | 35.39429 | 7008 ft | 114 kts | 212° |
| 2026-05-06 21:19 | 29.87036 | 35.38923 | 7008 ft | 114 kts | 212° |
| 2026-05-06 21:19 | 29.86372 | 35.38419 | 7008 ft | 114 kts | 212° |
| 2026-05-06 21:19 | 29.85706 | 35.37914 | 7008 ft | 114 kts | 212° |
| 2026-05-06 21:20 | 29.85045 | 35.37411 | 7008 ft | 114 kts | 212° |
| 2026-05-06 21:20 | 29.84382 | 35.36907 | 7008 ft | 114 kts | 212° |
| 2026-05-06 21:20 | 29.83721 | 35.36404 | 7008 ft | 114 kts | 212° |
| 2026-05-06 21:20 | 29.83054 | 35.35891 | 7006 ft | 114 kts | 216° |
| 2026-05-06 21:21 | 29.82509 | 35.35229 | 7007 ft | 115 kts | 226° |
| 2026-05-06 21:21 | 29.81995 | 35.34516 | 7007 ft | 115 kts | 227° |
| 2026-05-06 21:21 | 29.81492 | 35.33807 | 7007 ft | 115 kts | 227° |
| 2026-05-06 21:21 | 29.80985 | 35.33093 | 7007 ft | 115 kts | 227° |
| 2026-05-06 21:22 | 29.80482 | 35.32383 | 7007 ft | 115 kts | 227° |
| 2026-05-06 21:22 | 29.79973 | 35.31663 | 7007 ft | 115 kts | 227° |
| 2026-05-06 21:22 | 29.79377 | 35.31094 | 7010 ft | 114 kts | 212° |
| 2026-05-06 21:22 | 29.78907 | 35.30772 | 7008 ft | 114 kts | 208° |
| 2026-05-06 21:23 | 29.78590 | 35.30608 | 7009 ft | 114 kts | 202° |
| 2026-05-06 21:23 | 29.77846 | 35.30279 | 7008 ft | 115 kts | 201° |
| 2026-05-06 21:23 | 29.77826 | 35.30270 | 7007 ft | 115 kts | 201° |
| 2026-05-06 21:23 | 29.77165 | 35.29986 | 7007 ft | 115 kts | 201° |
| 2026-05-06 21:24 | 29.76526 | 35.29724 | 7007 ft | 115 kts | 200° |
| 2026-05-06 21:24 | 29.75807 | 35.29443 | 7007 ft | 114 kts | 199° |
| 2026-05-06 21:24 | 29.75089 | 35.29173 | 7007 ft | 114 kts | 199° |
| 2026-05-06 21:24 | 29.74481 | 35.28945 | 7007 ft | 114 kts | 199° |
| 2026-05-06 21:25 | 29.73729 | 35.28663 | 7007 ft | 113 kts | 199° |
| 2026-05-06 21:25 | 29.72979 | 35.28381 | 7007 ft | 113 kts | 199° |
| 2026-05-06 21:25 | 29.72233 | 35.28101 | 7007 ft | 113 kts | 199° |
| 2026-05-06 21:25 | 29.71492 | 35.27822 | 7007 ft | 113 kts | 199° |
| 2026-05-06 21:26 | 29.70799 | 35.27558 | 7005 ft | 113 kts | 202° |
| 2026-05-06 21:26 | 29.70193 | 35.27017 | 7005 ft | 113 kts | 223° |
| 2026-05-06 21:26 | 29.69635 | 35.26398 | 7007 ft | 113 kts | 220° |
| 2026-05-06 21:26 | 29.69218 | 35.25964 | 7007 ft | 113 kts | 220° |
| 2026-05-06 21:27 | 29.68782 | 35.25514 | 7007 ft | 113 kts | 220° |
| 2026-05-06 21:27 | 29.68179 | 35.24939 | 7007 ft | 113 kts | 215° |
| 2026-05-06 21:27 | 29.67550 | 35.24408 | 7007 ft | 113 kts | 215° |
| 2026-05-06 21:27 | 29.66919 | 35.23879 | 7007 ft | 113 kts | 215° |
| 2026-05-06 21:28 | 29.66347 | 35.23363 | 7006 ft | 113 kts | 218° |
| 2026-05-06 21:28 | 29.65785 | 35.22812 | 7006 ft | 113 kts | 219° |
| 2026-05-06 21:28 | 29.65245 | 35.22276 | 7006 ft | 113 kts | 219° |
| 2026-05-06 21:28 | 29.64653 | 35.21690 | 7006 ft | 113 kts | 219° |
| 2026-05-06 21:29 | 29.64059 | 35.21101 | 7007 ft | 114 kts | 219° |
| 2026-05-06 21:29 | 29.63622 | 35.20668 | 7007 ft | 114 kts | 219° |
| 2026-05-06 21:29 | 29.63013 | 35.20063 | 7006 ft | 115 kts | 219° |
| 2026-05-06 21:29 | 29.62407 | 35.19462 | 7006 ft | 115 kts | 219° |
| 2026-05-06 21:30 | 29.61799 | 35.18859 | 7006 ft | 115 kts | 219° |
| 2026-05-06 21:30 | 29.61196 | 35.18261 | 7006 ft | 115 kts | 219° |
| 2026-05-06 21:30 | 29.60560 | 35.17695 | 7007 ft | 115 kts | 214° |
| 2026-05-06 21:30 | 29.59935 | 35.17200 | 7006 ft | 115 kts | 213° |
| 2026-05-06 21:31 | 29.59349 | 35.16748 | 7006 ft | 115 kts | 213° |
| 2026-05-06 21:31 | 29.58761 | 35.16295 | 7006 ft | 115 kts | 213° |
| 2026-05-06 21:31 | 29.58064 | 35.15758 | 7006 ft | 115 kts | 213° |
| 2026-05-06 21:31 | 29.57484 | 35.15174 | 6994 ft | 118 kts | 236° |
| 2026-05-06 21:32 | 29.57277 | 35.14279 | 7004 ft | 120 kts | 254° |
| 2026-05-06 21:32 | 29.57129 | 35.12865 | 6968 ft | 120 kts | 256° |
| 2026-05-06 21:32 | 29.57079 | 35.12246 | 6769 ft | 95 kts | 256° |
| 2026-05-06 21:33 | 29.57000 | 35.11674 | 6559 ft | 90 kts | 251° |
| 2026-05-06 21:33 | 29.56882 | 35.10978 | 6325 ft | 95 kts | 250° |
| 2026-05-06 21:33 | 29.56602 | 35.10414 | 6109 ft | 93 kts | 224° |
| 2026-05-06 21:33 | 29.56157 | 35.09906 | 5920 ft | 91 kts | 221° |
| 2026-05-06 21:34 | 29.55770 | 35.09488 | 5794 ft | 94 kts | 220° |
| 2026-05-06 21:34 | 29.55589 | 35.09297 | 5746 ft | 100 kts | 220° |
| 2026-05-06 21:34 | 29.55535 | 35.09240 | 5731 ft | 102 kts | 220° |
| 2026-05-06 21:34 | 29.54989 | 35.08664 | 5589 ft | 110 kts | 220° |
| 2026-05-06 21:35 | 29.54425 | 35.08070 | 5444 ft | 113 kts | 220° |
| 2026-05-06 21:35 | 29.53968 | 35.07713 | 5339 ft | 112 kts | 209° |
| 2026-05-06 21:35 | 29.53297 | 35.07302 | 5192 ft | 111 kts | 208° |
| 2026-05-06 21:35 | 29.52633 | 35.06906 | 5045 ft | 110 kts | 207° |
| 2026-05-06 21:36 | 29.52502 | 35.06829 | 5016 ft | 109 kts | 207° |
| 2026-05-06 21:36 | 29.51949 | 35.06555 | 4896 ft | 121 kts | 209° |
| 2026-05-06 21:36 | 29.51179 | 35.06163 | 4752 ft | 124 kts | 216° |
| 2026-05-06 21:36 | 29.50463 | 35.05756 | 4603 ft | 127 kts | 215° |
| 2026-05-06 21:37 | 29.49668 | 35.05296 | 4357 ft | 130 kts | 216° |
| 2026-05-06 21:37 | 29.48860 | 35.04820 | 4106 ft | 130 kts | 219° |
| 2026-05-06 21:37 | 29.48334 | 35.04179 | 3882 ft | 120 kts | 246° |
| 2026-05-06 21:37 | 29.47983 | 35.03356 | 3638 ft | 116 kts | 256° |
| 2026-05-06 21:38 | 29.47694 | 35.02514 | 3393 ft | 116 kts | 256° |
| 2026-05-06 21:38 | 29.47382 | 35.01662 | 3145 ft | 117 kts | 256° |
| 2026-05-06 21:38 | 29.47084 | 35.00860 | 2899 ft | 108 kts | 256° |
| 2026-05-06 21:38 | 29.46872 | 35.00085 | 2638 ft | 96 kts | 276° |
| 2026-05-06 21:39 | 29.47073 | 34.99384 | 2393 ft | 93 kts | 303° |
| 2026-05-06 21:39 | 29.47415 | 34.98871 | 2247 ft | 85 kts | 328° |
| 2026-05-06 21:39 | 29.47804 | 34.98705 | 2141 ft | 83 kts | 342° |
| 2026-05-06 21:39 | 29.48351 | 34.98592 | 2027 ft | 79 kts | 358° |
| 2026-05-06 21:40 | 29.48949 | 34.98838 | 2027 ft | 103 kts | 17° |
| 2026-05-06 21:40 | 29.49606 | 34.99150 | 2019 ft | 110 kts | 9° |
| 2026-05-06 21:40 | 29.50310 | 34.99345 | 2013 ft | 103 kts | 6° |
| 2026-05-06 21:40 | 29.50949 | 34.99504 | 1997 ft | 100 kts | 6° |
| 2026-05-06 21:41 | 29.51616 | 34.99715 | 1952 ft | 101 kts | 8° |
| 2026-05-06 21:41 | 29.52268 | 34.99956 | 1889 ft | 102 kts | 13° |
| 2026-05-06 21:41 | 29.52857 | 35.00174 | 1813 ft | 99 kts | 9° |
| 2026-05-06 21:41 | 29.53571 | 35.00321 | 1695 ft | 98 kts | 1° |
| 2026-05-06 21:42 | 29.54242 | 35.00376 | 1584 ft | 96 kts | 356° |
| 2026-05-06 21:42 | 29.54875 | 35.00348 | 1365 ft | 83 kts | 355° |
| 2026-05-06 21:42 | 29.55392 | 35.00380 | 1099 ft | 74 kts | 358° |
| 2026-05-06 21:42 | 29.55881 | 35.00425 | 896 ft | 72 kts | 1° |
| 2026-05-06 21:43 | 29.56340 | 35.00492 | 796 ft | 64 kts | 1° |
| 2026-05-06 21:43 | 29.56776 | 35.00558 | 725 ft | 59 kts | 359° |
| 2026-05-06 21:43 | 29.57202 | 35.00605 | 720 ft | 67 kts | 1° |
| 2026-05-06 21:43 | 29.57656 | 35.00681 | 683 ft | 62 kts | 5° |
| 2026-05-06 21:44 | 29.58034 | 35.00783 | 550 ft | 57 kts | 7° |
| 2026-05-06 21:44 | 29.58412 | 35.00897 | 484 ft | 60 kts | 6° |
| 2026-05-06 21:44 | 29.58814 | 35.01019 | 431 ft | 68 kts | 8° |
| 2026-05-06 21:44 | 29.59067 | 35.01113 | 616 ft | 72 kts | 9° |
| 2026-05-06 21:45 | 29.59615 | 35.01280 | 901 ft | 88 kts | 8° |
| 2026-05-06 21:45 | 29.60241 | 35.01462 | 1187 ft | 95 kts | 7° |
| 2026-05-06 21:45 | 29.60546 | 35.01545 | 1342 ft | 96 kts | 8° |
| 2026-05-06 21:45 | 29.61197 | 35.01792 | 1527 ft | 97 kts | 12° |
| 2026-05-06 21:46 | 29.61829 | 35.02032 | 1567 ft | 97 kts | 9° |
| 2026-05-06 21:46 | 29.62420 | 35.02228 | 1562 ft | 92 kts | 10° |
| 2026-05-06 21:46 | 29.62925 | 35.02233 | 1351 ft | 67 kts | 312° |
| 2026-05-06 21:46 | 29.62786 | 35.01721 | 1101 ft | 91 kts | 216° |
| 2026-05-06 21:47 | 29.62048 | 35.01515 | 999 ft | 120 kts | 199° |
| 2026-05-06 21:47 | 29.61484 | 35.01361 | 1012 ft | 114 kts | 198° |
| 2026-05-06 21:47 | 29.60722 | 35.01119 | 972 ft | 106 kts | 204° |
| 2026-05-06 21:47 | 29.60151 | 35.00913 | 748 ft | 110 kts | 205° |
| 2026-05-06 21:48 | 29.59576 | 35.00836 | 650 ft | 84 kts | 139° |
| 2026-05-06 21:48 | 29.59527 | 35.01283 | 426 ft | 50 kts | 10° |
| 2026-05-06 21:48 | 29.59847 | 35.01354 | 195 ft | 50 kts | 6° |
| 2026-05-06 21:48 | 29.60187 | 35.01474 | 325 ft | 62 kts | 8° |
| 2026-05-06 21:49 | 29.60673 | 35.01651 | 521 ft | 79 kts | 13° |
| 2026-05-06 21:49 | 29.61212 | 35.01852 | 778 ft | 88 kts | 8° |
| 2026-05-06 21:49 | 29.61446 | 35.01918 | 885 ft | 88 kts | 9° |
| 2026-05-06 21:49 | 29.62043 | 35.02131 | 1139 ft | 90 kts | 10° |
| 2026-05-06 21:50 | 29.62592 | 35.02227 | 1207 ft | 70 kts | 316° |
| 2026-05-06 21:50 | 29.62473 | 35.01797 | 1186 ft | 96 kts | 226° |
| 2026-05-06 21:50 | 29.61764 | 35.01520 | 1128 ft | 114 kts | 200° |
| 2026-05-06 21:50 | 29.61563 | 35.01459 | 1077 ft | 111 kts | 201° |
| 2026-05-06 21:51 | 29.60935 | 35.01275 | 907 ft | 98 kts | 202° |
| 2026-05-06 21:51 | 29.60295 | 35.01059 | 665 ft | 96 kts | 205° |
| 2026-05-06 21:51 | 29.59720 | 35.00990 | 521 ft | 85 kts | 131° |
| 2026-05-06 21:51 | 29.59845 | 35.01366 | 227 ft | 67 kts | 7° |
| 2026-05-06 21:52 | 29.60243 | 35.01490 | 203 ft | 65 kts | 9° |
| 2026-05-06 21:52 | 29.60489 | 35.01580 | 335 ft | 76 kts | 10° |
| 2026-05-06 21:52 | 29.60704 | 35.01658 | 436 ft | 82 kts | 11° |
| 2026-05-06 21:52 | 29.60941 | 35.01746 | 500 ft | 85 kts | 11° |
| 2026-05-06 21:53 | 29.61186 | 35.01837 | 570 ft | 84 kts | 11° |
| 2026-05-06 21:54 | 29.61673 | 35.02010 | 695 ft | 78 kts | 10° |
| 2026-05-06 21:54 | 29.61908 | 35.02089 | 751 ft | 75 kts | 7° |
| 2026-05-06 21:54 | 29.62102 | 35.02140 | 777 ft | 76 kts | 6° |
| 2026-05-06 21:54 | 29.62603 | 35.02260 | 876 ft | 71 kts | 343° |
| 2026-05-06 21:55 | 29.62484 | 35.01774 | 922 ft | 111 kts | 205° |
| 2026-05-06 21:55 | 29.61693 | 35.01519 | 875 ft | 114 kts | 199° |
| 2026-05-06 21:55 | 29.61054 | 35.01315 | 870 ft | 104 kts | 202° |
| 2026-05-06 21:55 | 29.60605 | 35.01161 | 869 ft | 99 kts | 204° |
| 2026-05-06 21:56 | 29.59962 | 35.00931 | 804 ft | 90 kts | 206° |
| 2026-05-06 21:56 | 29.59660 | 35.01250 | 566 ft | 68 kts | 33° |
| 2026-05-06 21:56 | 29.60048 | 35.01420 | 177 ft | 55 kts | 7° |
| 2026-05-06 21:56 | 29.60324 | 35.01509 | 177 ft | 32 kts | 21° |
| 2026-05-06 21:57 | 29.60413 | 35.01546 | 177 ft | 11 kts | 17° |
| 2026-05-06 21:57 | 29.60574 | 35.01600 | 177 ft | 38 kts | 22° |
| 2026-05-06 21:57 | 29.60863 | 35.01717 | 177 ft | 51 kts | 17° |
| 2026-05-06 21:57 | 29.60951 | 35.01936 | 177 ft | 23 kts | 151° |
| 2026-05-06 21:58 | 29.60758 | 35.01841 | 177 ft | 26 kts | 221° |
| 2026-05-06 21:58 | 29.60595 | 35.01803 | 176 ft | 28 kts | 197° |
| 2026-05-06 21:58 | 29.60075 | 35.01582 | 176 ft | 15 kts | 168° |
| 2026-05-06 21:58 | 29.59882 | 35.01575 | 176 ft | 10 kts | 82° |
| 2026-05-06 21:59 | 29.59862 | 35.01638 | 176 ft | 0 kts | 60° |
| 2026-05-06 21:59 | 29.59836 | 35.01615 | 176 ft | 0 kts | 60° |